Time;durP1;ratioP1;P1;durP2;ratioP2;P2;SDS_P1;SDS_P2;PMS_P1;PMS_P2;Temp;Humidity;BMP_temperature;BMP_pressure;BME280_temperature;BME280_humidity;BME280_pressure;Samples;Min_cycle;Max_cycle;Signal;HPM_P1;HPM_P2
2023/07/28 00:02:48;;;;;;;10.60;6.20;;;;;;;16.17;97.22;99457.30;223178;1266;141783;-93
2023/07/28 00:07:48;;;;;;;14.90;5.60;;;;;;;16.17;97.21;99460.00;223851;1266;95676;-90
2023/07/28 00:12:49;;;;;;;11.30;6.30;;;;;;;16.15;97.95;99454.73;223190;1267;140113;-92
2023/07/28 00:17:49;;;;;;;9.80;6.00;;;;;;;16.10;97.69;99447.73;223693;1267;138896;-91
2023/07/28 00:22:49;;;;;;;11.70;6.20;;;;;;;16.06;98.25;99440.78;223196;1266;140720;-91
2023/07/28 00:27:50;;;;;;;9.80;5.40;;;;;;;16.02;98.43;99440.97;223726;1267;138827;-89
2023/07/28 00:32:51;;;;;;;10.80;5.40;;;;;;;16.00;98.52;99435.87;223106;1267;141543;-91
2023/07/28 00:37:51;;;;;;;9.10;4.60;;;;;;;16.00;98.75;99431.27;223811;1267;95902;-90
2023/07/28 00:42:52;;;;;;;9.90;5.60;;;;;;;15.99;98.69;99426.22;223192;1266;140727;-91
2023/07/28 00:47:52;;;;;;;9.90;5.70;;;;;;;15.98;98.95;99416.48;223688;1266;138658;-90
2023/07/28 00:52:55;;;;;;;12.20;5.70;;;;;;;15.97;99.14;99412.08;223205;1266;140337;-91
2023/07/28 00:57:55;;;;;;;9.70;5.20;;;;;;;15.97;99.31;99406.15;223695;1266;139075;-94
2023/07/28 01:02:57;;;;;;;11.90;5.90;;;;;;;15.97;99.60;99400.98;223132;1267;140614;-93
2023/07/28 01:08:19;;;;;;;9.40;5.60;;;;;;;15.95;99.84;99385.27;223834;1266;95786;-92
2023/07/28 01:13:19;;;;;;;12.40;6.30;;;;;;;15.94;100.00;99377.04;223175;1266;140030;-93
2023/07/28 01:18:20;;;;;;;10.60;6.40;;;;;;;15.95;99.87;99379.95;223651;1267;139288;-94
2023/07/28 01:23:51;;;;;;;11.90;6.70;;;;;;;15.94;100.00;99373.70;223165;1266;141834;-92
2023/07/28 01:28:53;;;;;;;10.90;5.60;;;;;;;15.95;100.00;99363.92;223665;1267;139193;-92
2023/07/28 01:33:53;;;;;;;10.10;5.10;;;;;;;15.97;99.98;99349.05;223194;1267;140936;-92
2023/07/28 01:38:54;;;;;;;11.80;6.00;;;;;;;15.96;99.99;99344.73;223737;1267;140471;-92
2023/07/28 01:43:55;;;;;;;10.20;6.10;;;;;;;15.98;100.00;99340.67;223273;1267;140399;-92
2023/07/28 01:48:56;;;;;;;13.00;7.00;;;;;;;15.97;100.00;99336.69;223024;1267;140853;-90
2023/07/28 01:53:56;;;;;;;11.10;6.30;;;;;;;15.96;100.00;99339.17;223669;1266;139241;-91
2023/07/28 01:58:56;;;;;;;11.80;7.10;;;;;;;15.97;100.00;99333.73;223166;1266;142842;-91
2023/07/28 02:03:57;;;;;;;12.90;7.10;;;;;;;15.97;100.00;99328.11;223686;1267;139790;-92
2023/07/28 02:08:57;;;;;;;13.60;7.40;;;;;;;15.99;100.00;99322.52;223100;1266;141350;-90
2023/07/28 02:13:58;;;;;;;11.20;7.00;;;;;;;16.00;100.00;99313.05;223832;1267;95832;-93
2023/07/28 02:18:58;;;;;;;11.20;6.70;;;;;;;16.03;100.00;99309.30;223199;1267;140791;-92
2023/07/28 02:23:59;;;;;;;9.20;6.40;;;;;;;16.06;100.00;99308.90;223698;1267;139138;-94
2023/07/28 02:29:00;;;;;;;10.70;6.50;;;;;;;16.07;100.00;99306.19;223172;1266;141132;-91
2023/07/28 02:34:00;;;;;;;11.40;7.30;;;;;;;16.06;100.00;99301.15;223723;1266;139776;-92
2023/07/28 02:39:01;;;;;;;10.60;6.60;;;;;;;16.05;100.00;99291.50;223179;1266;142000;-93
2023/07/28 02:44:01;;;;;;;10.30;6.50;;;;;;;16.06;100.00;99288.07;223759;1267;108522;-92
2023/07/28 02:49:03;;;;;;;11.20;7.40;;;;;;;16.07;100.00;99288.02;223141;1267;141449;-91
2023/07/28 02:54:04;;;;;;;12.60;8.80;;;;;;;16.09;100.00;99290.83;223691;1266;138890;-89
2023/07/28 02:59:04;;;;;;;10.40;7.10;;;;;;;16.06;100.00;99288.91;223109;1268;141262;-92
2023/07/28 03:04:06;;;;;;;13.00;8.30;;;;;;;16.08;100.00;99298.61;223693;1267;139313;-92
2023/07/28 03:09:06;;;;;;;9.90;6.70;;;;;;;16.10;100.00;99299.58;223082;1268;141682;-91
2023/07/28 03:14:07;;;;;;;13.30;8.10;;;;;;;16.12;100.00;99302.14;223800;1267;95963;-92
2023/07/28 03:19:07;;;;;;;10.60;7.30;;;;;;;16.12;100.00;99298.09;223119;1267;141685;-90
2023/07/28 03:24:07;;;;;;;11.90;8.10;;;;;;;16.11;100.00;99301.71;223711;1266;138912;-89
2023/07/28 03:29:08;;;;;;;13.20;8.60;;;;;;;16.10;100.00;99295.53;223160;1267;141542;-89
2023/07/28 03:34:09;;;;;;;11.10;7.50;;;;;;;16.12;100.00;99290.72;223722;1266;139394;-90
2023/07/28 03:39:09;;;;;;;9.70;7.00;;;;;;;16.13;100.00;99280.21;223114;1266;141046;-89
2023/07/28 03:44:10;;;;;;;10.50;7.10;;;;;;;16.15;100.00;99279.30;223811;1267;95837;-89
2023/07/28 03:49:10;;;;;;;10.80;7.00;;;;;;;16.17;100.00;99274.48;223169;1267;140585;-90
2023/07/28 03:54:11;;;;;;;9.60;6.60;;;;;;;16.20;100.00;99266.31;223725;1266;139035;-89
2023/07/28 03:59:11;;;;;;;9.30;6.60;;;;;;;16.22;100.00;99244.57;223118;1266;141464;-88
2023/07/28 04:04:12;;;;;;;12.10;8.20;;;;;;;16.26;100.00;99231.20;223732;1266;138910;-87
2023/07/28 04:09:14;;;;;;;10.80;7.20;;;;;;;16.29;100.00;99225.16;223150;1266;141216;-88
2023/07/28 04:14:14;;;;;;;12.50;7.70;;;;;;;16.32;100.00;99245.55;223788;1267;95892;-86
2023/07/28 04:19:14;;;;;;;11.90;7.70;;;;;;;16.35;100.00;99241.30;223098;1267;142807;-86
2023/07/28 04:24:15;;;;;;;11.00;7.80;;;;;;;16.39;100.00;99236.54;223715;1266;139259;-87
2023/07/28 04:29:16;;;;;;;12.20;8.50;;;;;;;16.41;100.00;99232.98;223186;1266;141100;-86
2023/07/28 04:34:16;;;;;;;10.30;7.70;;;;;;;16.43;100.00;99225.05;223666;1267;139670;-87
2023/07/28 04:39:17;;;;;;;10.90;7.80;;;;;;;16.48;100.00;99202.86;223170;1267;143091;-86
2023/07/28 04:44:18;;;;;;;11.70;8.00;;;;;;;16.51;100.00;99209.72;223769;1267;95880;-86
2023/07/28 04:49:18;;;;;;;11.50;8.30;;;;;;;16.52;100.00;99219.61;223149;1267;140807;-87
2023/07/28 04:54:19;;;;;;;12.70;9.80;;;;;;;16.53;100.00;99233.64;223714;1266;138876;-87
2023/07/28 04:59:19;;;;;;;15.90;11.90;;;;;;;16.54;100.00;99242.23;223163;1267;142264;-85
2023/07/28 05:04:20;;;;;;;16.80;11.00;;;;;;;16.53;100.00;99230.70;223713;1268;139394;-86
2023/07/28 05:09:20;;;;;;;17.30;11.80;;;;;;;16.57;100.00;99231.45;223187;1267;162192;-87
2023/07/28 05:14:20;;;;;;;16.30;11.90;;;;;;;16.59;100.00;99226.38;223831;1267;95886;-88
2023/07/28 05:19:22;;;;;;;18.60;12.40;;;;;;;16.62;100.00;99226.91;223182;1268;141092;-87
2023/07/28 05:24:22;;;;;;;13.90;10.80;;;;;;;16.68;100.00;99217.12;223703;1267;139653;-87
2023/07/28 05:29:22;;;;;;;14.00;10.80;;;;;;;16.74;100.00;99222.88;223185;1266;141172;-89
2023/07/28 05:34:23;;;;;;;13.10;10.60;;;;;;;16.80;100.00;99219.66;223721;1267;139181;-89
2023/07/28 05:39:23;;;;;;;16.20;12.40;;;;;;;16.86;100.00;99212.54;223164;1267;141922;-88
2023/07/28 05:44:24;;;;;;;14.00;11.00;;;;;;;16.90;100.00;99208.19;223808;1267;95824;-87
2023/07/28 05:49:24;;;;;;;16.20;12.70;;;;;;;16.95;100.00;99208.67;223161;1267;141709;-87
2023/07/28 05:54:25;;;;;;;18.10;13.40;;;;;;;16.99;100.00;99200.19;223705;1266;139545;-87
2023/07/28 05:59:25;;;;;;;16.70;12.70;;;;;;;17.02;100.00;99195.41;223164;1267;207800;-87
2023/07/28 06:04:26;;;;;;;18.70;13.10;;;;;;;17.04;100.00;99202.73;223682;1268;139370;-85
2023/07/28 06:09:26;;;;;;;18.00;12.70;;;;;;;17.06;100.00;99206.00;223100;1267;141919;-88
2023/07/28 06:14:27;;;;;;;14.80;12.00;;;;;;;17.10;100.00;99210.55;223827;1267;95978;-85
2023/07/28 06:19:27;;;;;;;15.80;10.80;;;;;;;17.15;100.00;99210.90;223173;1266;140920;-87
2023/07/28 06:24:30;;;;;;;14.70;11.20;;;;;;;17.20;100.00;99214.23;223724;1267;139139;-88
2023/07/28 06:29:30;;;;;;;13.70;10.00;;;;;;;17.25;100.00;99216.42;223215;1267;141750;-86
2023/07/28 06:34:31;;;;;;;16.00;10.00;;;;;;;17.32;100.00;99215.60;223676;1268;139793;-86
2023/07/28 06:39:31;;;;;;;13.20;9.20;;;;;;;17.39;100.00;99215.39;223133;1267;141664;-87
2023/07/28 06:44:32;;;;;;;13.70;10.40;;;;;;;17.45;100.00;99212.08;223840;1266;95922;-87
2023/07/28 06:49:32;;;;;;;14.00;9.80;;;;;;;17.54;100.00;99210.10;223170;1268;141374;-88
2023/07/28 06:54:33;;;;;;;11.30;8.60;;;;;;;17.63;100.00;99206.02;223738;1267;139532;-88
2023/07/28 06:59:34;;;;;;;10.10;7.30;;;;;;;17.76;100.00;99205.21;223162;1267;141648;-88
2023/07/28 07:04:35;;;;;;;9.30;6.10;;;;;;;17.85;100.00;99211.79;223733;1267;139296;-88
2023/07/28 07:09:36;;;;;;;8.40;5.40;;;;;;;17.95;100.00;99215.96;223148;1266;139835;-91
2023/07/28 07:14:36;;;;;;;6.50;4.30;;;;;;;18.04;100.00;99221.33;223789;1267;96288;-87
2023/07/28 07:19:37;;;;;;;6.20;4.20;;;;;;;18.15;100.00;99227.17;223323;1267;140503;-88
2023/07/28 07:24:37;;;;;;;5.30;3.20;;;;;;;18.24;100.00;99226.27;223715;1268;138653;-88
2023/07/28 07:29:39;;;;;;;5.00;3.20;;;;;;;18.33;100.00;99233.98;223123;1268;142983;-87
2023/07/28 07:34:39;;;;;;;4.50;2.80;;;;;;;18.43;100.00;99237.74;223712;1266;139358;-87
2023/07/28 07:39:41;;;;;;;3.60;2.40;;;;;;;18.49;100.00;99237.70;223160;1268;141192;-88
2023/07/28 07:44:41;;;;;;;4.60;2.80;;;;;;;18.60;100.00;99237.89;223558;1268;138715;-88
2023/07/28 07:49:43;;;;;;;3.80;2.50;;;;;;;18.71;100.00;99242.55;223294;1267;142045;-90
2023/07/28 07:54:43;;;;;;;3.40;2.40;;;;;;;18.75;100.00;99249.25;223713;1267;139146;-87
2023/07/28 07:59:44;;;;;;;4.30;2.90;;;;;;;18.78;100.00;99252.38;223168;1267;142173;-89
2023/07/28 08:04:44;;;;;;;5.30;3.30;;;;;;;18.83;100.00;99252.73;223688;1266;138843;-88
2023/07/28 08:09:45;;;;;;;6.80;3.70;;;;;;;18.90;100.00;99253.54;223153;1267;141014;-89
2023/07/28 08:14:46;;;;;;;5.50;3.80;;;;;;;18.99;100.00;99256.20;223710;1268;138842;-90
2023/07/28 08:19:46;;;;;;;5.90;4.10;;;;;;;19.07;100.00;99257.30;223249;1266;140800;-91
2023/07/28 08:24:47;;;;;;;5.80;3.80;;;;;;;19.14;100.00;99257.55;223697;1271;139201;-88
2023/07/28 08:29:48;;;;;;;5.80;4.10;;;;;;;19.17;100.00;99258.05;223193;1267;140446;-87
2023/07/28 08:34:48;;;;;;;6.90;4.40;;;;;;;19.26;100.00;99254.77;223633;1267;139456;-88
2023/07/28 08:39:48;;;;;;;7.20;4.40;;;;;;;19.52;100.00;99259.85;223148;1266;141145;-89
2023/07/28 08:44:52;;;;;;;7.30;4.30;;;;;;;19.78;100.00;99260.98;223740;1267;139639;-89
2023/07/28 08:49:52;;;;;;;7.00;4.20;;;;;;;20.03;100.00;99255.15;223229;1268;141305;-88
2023/07/28 08:54:53;;;;;;;6.70;4.00;;;;;;;20.41;100.00;99251.87;223718;1268;139416;-90
2023/07/28 08:59:54;;;;;;;8.10;3.90;;;;;;;20.62;100.00;99252.32;223158;1267;142074;-89
2023/07/28 09:04:55;;;;;;;4.90;3.20;;;;;;;20.74;100.00;99256.88;223697;1267;139337;-87
2023/07/28 09:10:00;;;;;;;7.90;3.50;;;;;;;20.84;100.00;99259.85;223168;1266;141994;-89
2023/07/28 09:15:01;;;;;;;6.00;3.20;;;;;;;21.00;100.00;99256.80;223646;1267;140017;-89
2023/07/28 09:20:02;;;;;;;7.90;3.50;;;;;;;21.28;100.00;99260.14;223274;1266;141898;-89
2023/07/28 09:25:12;;;;;;;5.40;3.40;;;;;;;21.56;100.00;99256.86;223700;1267;139550;-87
2023/07/28 09:30:16;;;;;;;5.70;3.30;;;;;;;21.70;100.00;99259.05;223083;1270;141833;-90
2023/07/28 09:35:17;;;;;;;5.70;3.40;;;;;;;21.84;100.00;99251.48;223700;1266;139551;-90
2023/07/28 09:40:21;;;;;;;5.50;2.80;;;;;;;21.95;100.00;99251.17;222900;1267;314775;-90
2023/07/28 09:45:22;;;;;;;6.90;2.90;;;;;;;21.96;100.00;99252.31;223637;1267;139504;-89
2023/07/28 09:50:26;;;;;;;4.30;2.60;;;;;;;21.97;100.00;99255.90;223254;1267;141671;-91
2023/07/28 09:55:28;;;;;;;5.30;2.90;;;;;;;22.20;100.00;99252.65;223588;1267;139507;-92
2023/07/28 10:00:29;;;;;;;2.90;1.80;;;;;;;22.74;100.00;99248.59;223171;1266;142150;-89
2023/07/28 10:05:30;;;;;;;4.10;2.10;;;;;;;23.12;98.53;99249.30;223726;1267;138882;-91
2023/07/28 10:10:31;;;;;;;4.60;1.70;;;;;;;23.26;96.38;99250.29;223165;1267;140952;-91
2023/07/28 10:15:32;;;;;;;3.50;1.80;;;;;;;23.32;94.59;99262.81;223666;1270;138694;-90
2023/07/28 10:20:41;;;;;;;2.20;1.80;;;;;;;23.38;94.70;99267.64;223206;1267;141828;-91
2023/07/28 10:25:44;;;;;;;1.90;1.40;;;;;;;23.72;96.77;99265.04;223721;1267;95877;-91
2023/07/28 10:30:55;;;;;;;2.60;1.80;;;;;;;23.95;95.70;99268.86;223167;1267;142104;-86
2023/07/28 10:35:55;;;;;;;4.10;2.10;;;;;;;23.80;94.32;99271.13;223636;1267;139304;-87
2023/07/28 10:41:05;;;;;;;3.30;1.80;;;;;;;23.48;94.36;99282.58;223164;1270;140386;-92
2023/07/28 10:46:11;;;;;;;3.30;2.20;;;;;;;23.08;95.81;99283.75;223661;1267;138811;-92
2023/07/28 10:51:12;;;;;;;;;;;;;;;22.91;97.60;99288.34;223107;1268;141759;-93
2023/07/28 10:56:13;;;;;;;8.10;4.30;;;;;;;22.84;99.51;99282.02;223810;1267;96133;-92
2023/07/28 11:01:15;;;;;;;6.70;2.80;;;;;;;22.74;99.09;99279.71;223167;1267;141784;-91
2023/07/28 11:06:15;;;;;;;4.20;2.50;;;;;;;22.77;99.88;99289.95;223695;1267;138843;-91
2023/07/28 11:11:16;;;;;;;5.40;2.80;;;;;;;22.89;100.00;99289.24;223144;1268;142039;-93
2023/07/28 11:16:17;;;;;;;4.40;2.50;;;;;;;22.86;100.00;99283.17;223710;1267;139052;-91
2023/07/28 11:21:22;;;;;;;3.00;2.20;;;;;;;22.80;99.71;99290.16;223189;1267;140599;-91
2023/07/28 11:26:22;;;;;;;3.60;2.30;;;;;;;22.71;99.14;99302.06;223728;1267;105355;-90
2023/07/28 11:31:25;;;;;;;7.40;2.80;;;;;;;22.65;98.01;99302.83;223189;1267;141875;-92
2023/07/28 11:36:27;;;;;;;5.60;2.40;;;;;;;22.63;97.67;99306.21;223707;1266;138659;-90
2023/07/28 11:41:28;;;;;;;4.50;2.30;;;;;;;22.51;96.50;99314.16;223109;1267;141263;-89
2023/07/28 11:46:46;;;;;;;5.70;2.60;;;;;;;22.37;96.65;99313.39;223624;1267;138850;-89
2023/07/28 11:51:49;;;;;;;5.40;2.60;;;;;;;22.15;96.36;99317.83;223096;1267;141934;-89
2023/07/28 11:56:50;;;;;;;3.30;2.40;;;;;;;21.97;97.42;99324.86;223668;1267;139059;-90
2023/07/28 12:01:54;;;;;;;3.60;2.40;;;;;;;21.90;98.51;99317.24;223171;1267;140983;-91
2023/07/28 12:07:02;;;;;;;6.70;2.60;;;;;;;21.84;99.07;99320.69;223603;1267;138638;-91
2023/07/28 12:12:04;;;;;;;3.70;2.20;;;;;;;21.81;99.35;99325.42;223126;1267;140634;-92
2023/07/28 12:17:17;;;;;;;4.60;2.50;;;;;;;21.77;99.33;99338.08;223726;1267;139394;-91
2023/07/28 12:22:18;;;;;;;10.60;3.50;;;;;;;21.69;99.95;99354.45;222907;1270;140027;-91
2023/07/28 12:27:20;;;;;;;7.50;3.00;;;;;;;21.54;99.93;99358.27;223631;1267;138921;-91
2023/07/28 12:32:21;;;;;;;6.40;2.30;;;;;;;21.34;100.00;99379.76;223257;1267;141109;-94
2023/07/28 12:37:21;;;;;;;4.60;1.90;;;;;;;21.14;100.00;99379.35;223719;1267;138671;-93
2023/07/28 12:42:22;;;;;;;10.80;2.50;;;;;;;20.92;100.00;99381.71;223103;1267;140711;-91
2023/07/28 12:47:23;;;;;;;3.60;2.00;;;;;;;20.79;100.00;99376.11;223653;1267;138949;-91
2023/07/28 12:52:23;;;;;;;5.20;2.70;;;;;;;20.64;100.00;99370.56;223166;1267;142043;-88
2023/07/28 12:57:24;;;;;;;2.90;2.00;;;;;;;20.62;100.00;99374.33;223698;1267;138839;-87
2023/07/28 13:02:25;;;;;;;5.70;2.30;;;;;;;20.74;100.00;99376.01;223220;1267;143671;-86
2023/07/28 13:07:25;;;;;;;4.10;2.00;;;;;;;20.84;100.00;99381.19;223636;1266;139300;-86
2023/07/28 13:12:26;;;;;;;4.40;2.10;;;;;;;20.88;100.00;99389.34;223152;1267;141030;-87
2023/07/28 13:17:26;;;;;;;6.30;2.60;;;;;;;20.92;100.00;99396.82;223696;1267;138859;-86
2023/07/28 13:22:27;;;;;;;7.50;3.00;;;;;;;21.00;100.00;99396.11;223102;1267;140977;-86
2023/07/28 13:27:27;;;;;;;7.30;2.80;;;;;;;21.16;100.00;99397.21;223634;1267;139049;-86
2023/07/28 13:32:28;;;;;;;5.20;2.80;;;;;;;21.42;100.00;99401.98;223219;1266;142188;-85
2023/07/28 13:37:28;;;;;;;4.30;2.10;;;;;;;21.63;100.00;99402.14;223695;1266;139014;-85
2023/07/28 13:42:29;;;;;;;4.80;2.30;;;;;;;21.68;100.00;99413.49;223145;1266;141633;-85
2023/07/28 13:47:29;;;;;;;4.90;2.80;;;;;;;21.80;100.00;99421.54;223678;1266;139456;-84
2023/07/28 13:52:29;;;;;;;3.90;2.10;;;;;;;22.08;100.00;99422.34;223101;1267;140821;-83
2023/07/28 13:57:32;;;;;;;4.50;2.10;;;;;;;22.27;100.00;99422.00;223656;1267;139238;-85
2023/07/28 14:02:32;;;;;;;4.60;2.50;;;;;;;22.51;100.00;99421.70;223187;1267;140310;-86
2023/07/28 14:07:34;;;;;;;3.30;2.00;;;;;;;22.65;100.00;99422.77;223704;1266;139090;-85
2023/07/28 14:12:35;;;;;;;9.80;2.80;;;;;;;22.73;100.00;99439.02;223126;1267;140570;-92
2023/07/28 14:17:35;;;;;;;4.40;2.30;;;;;;;22.76;100.00;99444.19;223697;1266;139100;-89
2023/07/28 14:22:35;;;;;;;4.30;2.10;;;;;;;22.69;100.00;99468.33;223116;1266;140338;-88
2023/07/28 14:27:36;;;;;;;5.50;2.50;;;;;;;22.50;100.00;99469.44;223688;1267;139536;-88
2023/07/28 14:32:36;;;;;;;7.70;2.70;;;;;;;22.30;100.00;99468.76;223181;1266;140973;-85
2023/07/28 14:37:37;;;;;;;3.80;2.20;;;;;;;22.14;100.00;99472.61;223782;1266;95926;-86
2023/07/28 14:42:38;;;;;;;6.30;2.50;;;;;;;21.92;100.00;99480.14;223099;1266;140436;-87
2023/07/28 14:47:39;;;;;;;5.70;3.00;;;;;;;21.74;100.00;99483.45;223670;1266;139072;-85
2023/07/28 14:52:39;;;;;;;6.20;3.00;;;;;;;21.58;100.00;99488.13;223100;1266;141223;-86
2023/07/28 14:57:40;;;;;;;3.90;2.40;;;;;;;21.43;100.00;99484.46;223641;1267;139723;-85
2023/07/28 15:02:40;;;;;;;5.90;2.50;;;;;;;21.28;100.00;99486.59;223100;1266;140936;-85
2023/07/28 15:07:41;;;;;;;5.80;2.00;;;;;;;21.27;100.00;99477.81;223795;1266;96050;-85
2023/07/28 15:12:43;;;;;;;2.40;1.50;;;;;;;21.28;100.00;99482.98;223149;1266;140699;-85
2023/07/28 15:17:44;;;;;;;4.40;1.60;;;;;;;21.25;100.00;99494.23;223627;1266;139288;-84
2023/07/28 15:22:44;;;;;;;3.00;1.40;;;;;;;21.20;100.00;99503.84;223139;1267;142506;-83
2023/07/28 15:27:45;;;;;;;2.30;1.30;;;;;;;21.17;100.00;99505.98;223671;1267;138935;-84
2023/07/28 15:32:45;;;;;;;3.10;1.30;;;;;;;21.15;100.00;99508.80;223133;1266;142135;-85
2023/07/28 15:37:46;;;;;;;2.20;1.30;;;;;;;21.12;100.00;99514.92;223786;1266;95978;-85
2023/07/28 15:42:46;;;;;;;4.00;1.50;;;;;;;21.13;100.00;99512.06;223169;1266;140521;-85
2023/07/28 15:47:50;;;;;;;4.00;1.70;;;;;;;21.15;100.00;99509.16;223679;1266;139032;-84
2023/07/28 15:52:51;;;;;;;4.10;2.00;;;;;;;21.17;100.00;99506.52;223085;1266;142637;-84
2023/07/28 15:57:52;;;;;;;3.00;1.70;;;;;;;21.20;100.00;99518.08;223714;1266;139052;-85
2023/07/28 16:02:52;;;;;;;2.20;1.60;;;;;;;21.23;100.00;99519.37;223169;1266;141250;-85
2023/07/28 16:07:52;;;;;;;4.90;2.00;;;;;;;21.25;100.00;99511.31;223797;1266;95900;-85
2023/07/28 16:12:53;;;;;;;3.30;2.00;;;;;;;21.22;100.00;99508.30;223172;1266;140639;-86
2023/07/28 16:17:53;;;;;;;4.10;2.10;;;;;;;21.17;100.00;99518.42;223660;1266;140080;-86
2023/07/28 16:22:54;;;;;;;2.40;1.70;;;;;;;21.18;100.00;99518.96;223153;1267;140948;-86
2023/07/28 16:27:54;;;;;;;4.40;1.90;;;;;;;21.15;100.00;99522.27;223718;1266;139623;-86
2023/07/28 16:32:54;;;;;;;3.70;2.20;;;;;;;21.12;100.00;99526.83;223136;1266;141705;-86
2023/07/28 16:37:55;;;;;;;2.30;1.40;;;;;;;21.09;100.00;99531.28;223743;1266;105673;-86
2023/07/28 16:42:55;;;;;;;3.40;1.80;;;;;;;21.05;100.00;99534.34;223156;1266;143171;-85
2023/07/28 16:47:56;;;;;;;2.00;1.50;;;;;;;21.02;100.00;99541.42;223686;1266;139602;-85
2023/07/28 16:52:56;;;;;;;3.80;1.90;;;;;;;20.98;100.00;99545.20;223099;1267;142782;-85
2023/07/28 16:57:57;;;;;;;3.20;1.60;;;;;;;20.93;100.00;99544.33;223696;1266;140176;-86
2023/07/28 17:02:58;;;;;;;3.20;1.60;;;;;;;20.84;100.00;99546.36;223164;1266;144048;-86
2023/07/28 17:07:59;;;;;;;1.80;1.50;;;;;;;20.78;100.00;99552.95;223801;1266;95872;-86
2023/07/28 17:13:00;;;;;;;3.10;1.60;;;;;;;20.72;100.00;99557.55;223058;1266;141115;-86
2023/07/28 17:18:00;;;;;;;4.10;2.10;;;;;;;20.65;100.00;99569.29;223690;1266;139797;-85
2023/07/28 17:23:01;;;;;;;3.50;1.70;;;;;;;20.60;100.00;99572.84;223054;1267;140626;-86
2023/07/28 17:28:01;;;;;;;4.40;1.60;;;;;;;20.53;100.00;99576.11;223691;1266;139082;-86
2023/07/28 17:33:02;;;;;;;2.90;2.00;;;;;;;20.45;100.00;99584.52;223173;1266;143498;-86
2023/07/28 17:38:02;;;;;;;2.90;1.90;;;;;;;20.40;100.00;99589.45;223827;1266;96378;-87
2023/07/28 17:43:03;;;;;;;3.70;2.10;;;;;;;20.33;100.00;99592.39;223159;1266;140459;-87
2023/07/28 17:48:04;;;;;;;5.20;2.30;;;;;;;20.23;100.00;99599.35;223710;1266;138828;-87
2023/07/28 17:53:05;;;;;;;3.30;2.00;;;;;;;20.15;100.00;99605.10;223118;1267;142655;-87
2023/07/28 17:58:06;;;;;;;6.70;2.40;;;;;;;20.09;100.00;99605.36;223650;1266;139278;-87
2023/07/28 18:03:07;;;;;;;3.40;2.10;;;;;;;20.01;100.00;99611.55;223084;1267;141342;-89
2023/07/28 18:08:11;;;;;;;5.00;2.80;;;;;;;19.97;100.00;99616.80;223722;1267;95981;-88
2023/07/28 18:13:13;;;;;;;5.80;2.50;;;;;;;19.90;100.00;99614.88;223114;1267;140574;-89
2023/07/28 18:18:14;;;;;;;4.50;2.50;;;;;;;19.87;100.00;99618.59;223680;1267;139003;-88
2023/07/28 18:23:15;;;;;;;8.20;2.40;;;;;;;19.84;100.00;99619.91;223097;1266;140897;-89
2023/07/28 18:28:15;;;;;;;6.00;2.50;;;;;;;19.76;100.00;99618.79;223698;1267;139047;-89
2023/07/28 18:33:16;;;;;;;3.30;2.40;;;;;;;19.65;100.00;99626.14;223138;1267;141711;-89
2023/07/28 18:38:16;;;;;;;6.00;2.30;;;;;;;19.57;100.00;99629.58;223828;1267;95930;-89
2023/07/28 18:43:17;;;;;;;5.50;2.10;;;;;;;19.50;100.00;99633.96;223112;1267;142153;-89
2023/07/28 18:48:20;;;;;;;4.20;2.60;;;;;;;19.43;100.00;99635.27;223676;1267;138984;-88
2023/07/28 18:53:20;;;;;;;4.00;2.50;;;;;;;19.36;100.00;99637.16;223157;1266;143389;-89
2023/07/28 18:58:21;;;;;;;5.30;2.60;;;;;;;19.30;100.00;99641.43;223734;1267;139995;-89
2023/07/28 19:03:23;;;;;;;4.40;3.00;;;;;;;19.28;100.00;99655.95;223182;1266;141503;-88
2023/07/28 19:08:24;;;;;;;6.50;3.10;;;;;;;19.25;100.00;99657.30;223773;1267;104277;-89
2023/07/28 19:13:27;;;;;;;6.30;2.90;;;;;;;19.24;100.00;99664.15;223215;1266;142549;-89
2023/07/28 19:18:28;;;;;;;8.00;2.90;;;;;;;19.22;100.00;99667.63;223730;1267;139135;-89
2023/07/28 19:23:28;;;;;;;4.10;3.00;;;;;;;19.18;100.00;99665.91;223175;1266;143568;-89
2023/07/28 19:28:29;;;;;;;4.70;3.00;;;;;;;19.13;100.00;99674.38;223660;1266;139056;-90
2023/07/28 19:33:35;;;;;;;8.60;3.30;;;;;;;19.08;100.00;99680.28;223185;1266;141646;-90
2023/07/28 19:38:36;;;;;;;6.80;3.40;;;;;;;19.05;100.00;99684.36;223692;1267;112071;-89
2023/07/28 19:43:36;;;;;;;4.70;3.10;;;;;;;19.00;100.00;99690.06;223169;1267;152935;-90
2023/07/28 19:48:37;;;;;;;4.60;2.80;;;;;;;18.93;100.00;99690.62;223665;1267;139459;-89
2023/07/28 19:53:37;;;;;;;4.10;2.70;;;;;;;18.88;100.00;99698.54;223142;1267;140418;-90
2023/07/28 19:58:38;;;;;;;5.70;3.60;;;;;;;18.78;100.00;99701.56;223720;1266;139003;-90
2023/07/28 20:03:38;;;;;;;6.00;3.60;;;;;;;18.69;100.00;99696.30;223186;1267;142333;-89
2023/07/28 20:08:39;;;;;;;5.60;3.60;;;;;;;18.60;100.00;99703.54;223662;1267;139416;-89
2023/07/28 20:13:40;;;;;;;7.20;4.00;;;;;;;18.52;100.00;99704.59;223277;1266;140699;-89
2023/07/28 20:18:43;;;;;;;7.30;3.90;;;;;;;18.43;100.00;99705.05;223685;1268;139548;-90
2023/07/28 20:23:43;;;;;;;6.80;3.10;;;;;;;18.35;100.00;99706.13;223087;1267;141447;-90
2023/07/28 20:28:44;;;;;;;7.20;3.80;;;;;;;18.23;100.00;99705.73;223649;1267;138809;-90
2023/07/28 20:33:44;;;;;;;6.60;4.20;;;;;;;18.13;100.00;99711.87;223182;1266;140588;-90
2023/07/28 20:38:45;;;;;;;5.00;3.20;;;;;;;18.03;100.00;99717.20;223718;1267;139806;-90
2023/07/28 20:43:46;;;;;;;7.90;4.30;;;;;;;17.93;100.00;99723.70;223273;1267;140443;-90
2023/07/28 20:48:46;;;;;;;6.40;3.60;;;;;;;17.86;100.00;99721.85;223724;1266;138710;-89
2023/07/28 20:53:47;;;;;;;5.80;3.90;;;;;;;17.75;100.00;99716.94;223169;1267;140761;-90
2023/07/28 20:58:47;;;;;;;7.30;3.20;;;;;;;17.64;100.00;99717.96;223682;1266;139305;-90
2023/07/28 21:03:48;;;;;;;10.80;4.30;;;;;;;17.58;100.00;99726.32;223177;1266;140280;-89
2023/07/28 21:08:48;;;;;;;4.70;3.10;;;;;;;17.54;100.00;99725.49;223709;1266;139169;-90
2023/07/28 21:13:48;;;;;;;7.50;4.50;;;;;;;17.48;100.00;99739.01;223336;1267;140582;-90
2023/07/28 21:18:49;;;;;;;6.30;3.80;;;;;;;17.43;100.00;99740.42;223760;1266;139326;-89
2023/07/28 21:23:51;;;;;;;6.20;4.10;;;;;;;17.37;100.00;99743.43;223171;1267;140396;-90
2023/07/28 21:28:51;;;;;;;5.90;3.50;;;;;;;17.31;100.00;99757.48;223731;1267;139410;-89
2023/07/28 21:33:52;;;;;;;9.50;4.50;;;;;;;17.26;100.00;99760.89;223218;1267;141794;-89
2023/07/28 21:38:52;;;;;;;6.70;4.00;;;;;;;17.20;100.00;99762.55;223325;1266;434474;-89
2023/07/28 21:43:53;;;;;;;6.80;3.80;;;;;;;17.13;100.00;99768.63;223271;1267;141762;-89
2023/07/28 21:48:53;;;;;;;6.50;4.00;;;;;;;17.05;100.00;99767.65;223715;1267;138684;-90
2023/07/28 21:53:53;;;;;;;11.00;5.40;;;;;;;16.99;100.00;99768.59;223168;1267;141543;-89
2023/07/28 21:58:54;;;;;;;6.90;4.00;;;;;;;16.96;100.00;99770.97;223723;1268;139190;-89
2023/07/28 22:03:54;;;;;;;8.80;5.10;;;;;;;16.95;100.00;99773.84;223071;1266;141125;-90
2023/07/28 22:08:55;;;;;;;8.60;5.40;;;;;;;16.96;100.00;99771.52;223723;1266;138981;-89
2023/07/28 22:13:55;;;;;;;7.90;5.40;;;;;;;16.94;100.00;99769.27;223508;1266;139624;-90
2023/07/28 22:18:56;;;;;;;7.30;3.80;;;;;;;16.91;100.00;99766.25;223099;1266;142503;-87
2023/07/28 22:23:56;;;;;;;13.00;5.70;;;;;;;16.86;100.00;99769.55;223744;1267;139418;-88
2023/07/28 22:28:57;;;;;;;8.70;4.90;;;;;;;16.84;100.00;99773.98;223168;1267;141341;-87
2023/07/28 22:33:57;;;;;;;10.20;5.40;;;;;;;16.80;100.00;99776.29;223700;1268;140148;-88
2023/07/28 22:38:58;;;;;;;7.70;4.90;;;;;;;16.76;100.00;99773.14;223173;1267;142168;-88
2023/07/28 22:43:59;;;;;;;8.10;4.20;;;;;;;16.73;100.00;99778.59;223807;1267;95609;-87
2023/07/28 22:48:59;;;;;;;7.60;4.70;;;;;;;16.71;100.00;99782.00;223143;1267;141165;-88